sensor_id;sensor_type;location;lat;lon;timestamp;pressure;altitude;pressure_sealevel;temperature;humidity
40285;BME280;25997;50.214;19.354;2023-02-10T00:02:55;99477.47;;;-3.96;45.87
40285;BME280;25997;50.214;19.354;2023-02-10T00:05:58;99475.66;;;-3.97;45.97
40285;BME280;25997;50.214;19.354;2023-02-10T00:09:02;99480.81;;;-4.13;46.97
40285;BME280;25997;50.214;19.354;2023-02-10T00:12:05;99459.88;;;-4.09;46.72
40285;BME280;25997;50.214;19.354;2023-02-10T00:15:10;99461.13;;;-4.05;46.64
40285;BME280;25997;50.214;19.354;2023-02-10T00:18:13;99455.50;;;-4.10;47.04
40285;BME280;25997;50.214;19.354;2023-02-10T00:21:16;99445.75;;;-4.05;46.84
40285;BME280;25997;50.214;19.354;2023-02-10T00:24:19;99442.69;;;-4.10;46.60
40285;BME280;25997;50.214;19.354;2023-02-10T00:27:22;99435.09;;;-4.17;47.59
40285;BME280;25997;50.214;19.354;2023-02-10T00:30:26;99432.09;;;-4.13;47.54
40285;BME280;25997;50.214;19.354;2023-02-10T00:33:29;99432.34;;;-4.03;46.87
40285;BME280;25997;50.214;19.354;2023-02-10T00:36:31;99433.16;;;-4.11;46.99
40285;BME280;25997;50.214;19.354;2023-02-10T00:39:36;99429.06;;;-4.17;47.49
40285;BME280;25997;50.214;19.354;2023-02-10T00:42:38;99424.13;;;-4.16;47.63
40285;BME280;25997;50.214;19.354;2023-02-10T00:45:42;99424.91;;;-4.08;47.43
40285;BME280;25997;50.214;19.354;2023-02-10T00:48:45;99427.94;;;-4.04;47.17
40285;BME280;25997;50.214;19.354;2023-02-10T00:51:48;99426.28;;;-4.03;46.86
40285;BME280;25997;50.214;19.354;2023-02-10T00:54:50;99422.06;;;-4.03;46.96
40285;BME280;25997;50.214;19.354;2023-02-10T00:57:53;99429.44;;;-4.06;47.27
40285;BME280;25997;50.214;19.354;2023-02-10T01:00:57;99433.56;;;-3.99;46.86
40285;BME280;25997;50.214;19.354;2023-02-10T01:03:59;99425.84;;;-3.99;47.08
40285;BME280;25997;50.214;19.354;2023-02-10T01:07:02;99429.03;;;-3.93;46.87
40285;BME280;25997;50.214;19.354;2023-02-10T01:10:05;99436.91;;;-3.92;47.16
40285;BME280;25997;50.214;19.354;2023-02-10T01:13:09;99430.88;;;-3.92;47.01
40285;BME280;25997;50.214;19.354;2023-02-10T01:16:15;99429.53;;;-3.88;46.97
40285;BME280;25997;50.214;19.354;2023-02-10T01:19:18;99430.25;;;-3.98;47.41
40285;BME280;25997;50.214;19.354;2023-02-10T01:22:22;99430.25;;;-3.98;47.45
40285;BME280;25997;50.214;19.354;2023-02-10T01:25:25;99423.63;;;-3.96;47.55
40285;BME280;25997;50.214;19.354;2023-02-10T01:28:27;99426.34;;;-3.95;47.51
40285;BME280;25997;50.214;19.354;2023-02-10T01:31:31;99415.00;;;-3.97;47.74
40285;BME280;25997;50.214;19.354;2023-02-10T01:34:36;99413.94;;;-3.99;47.34
40285;BME280;25997;50.214;19.354;2023-02-10T01:37:39;99413.38;;;-3.96;47.44
40285;BME280;25997;50.214;19.354;2023-02-10T01:40:42;99409.88;;;-3.97;47.65
40285;BME280;25997;50.214;19.354;2023-02-10T01:43:59;99414.41;;;-3.94;47.42
40285;BME280;25997;50.214;19.354;2023-02-10T01:47:04;99404.59;;;-3.98;47.86
40285;BME280;25997;50.214;19.354;2023-02-10T01:50:07;99408.22;;;-3.96;47.59
40285;BME280;25997;50.214;19.354;2023-02-10T01:53:10;99394.50;;;-3.97;47.93
40285;BME280;25997;50.214;19.354;2023-02-10T01:56:15;99387.25;;;-4.01;47.91
40285;BME280;25997;50.214;19.354;2023-02-10T01:59:21;99382.88;;;-3.93;47.73
40285;BME280;25997;50.214;19.354;2023-02-10T02:02:26;99383.91;;;-4.00;47.84
40285;BME280;25997;50.214;19.354;2023-02-10T02:05:31;99380.88;;;-4.04;47.97
40285;BME280;25997;50.214;19.354;2023-02-10T02:08:35;99382.84;;;-4.02;47.88
40285;BME280;25997;50.214;19.354;2023-02-10T02:11:45;99394.34;;;-3.98;47.69
40285;BME280;25997;50.214;19.354;2023-02-10T02:14:54;99387.38;;;-3.99;47.67
40285;BME280;25997;50.214;19.354;2023-02-10T02:18:06;99389.81;;;-4.01;47.51
40285;BME280;25997;50.214;19.354;2023-02-10T02:21:42;99383.75;;;-4.01;47.96
40285;BME280;25997;50.214;19.354;2023-02-10T02:25:02;99391.78;;;-3.98;47.80
40285;BME280;25997;50.214;19.354;2023-02-10T02:28:22;99391.16;;;-3.96;47.38
40285;BME280;25997;50.214;19.354;2023-02-10T02:31:57;99385.63;;;-3.92;47.37
40285;BME280;25997;50.214;19.354;2023-02-10T02:35:06;99377.47;;;-3.96;47.70
40285;BME280;25997;50.214;19.354;2023-02-10T02:38:09;99397.50;;;-4.01;47.66
40285;BME280;25997;50.214;19.354;2023-02-10T02:41:12;99387.53;;;-3.98;48.04
40285;BME280;25997;50.214;19.354;2023-02-10T02:44:15;99384.81;;;-3.99;47.94
40285;BME280;25997;50.214;19.354;2023-02-10T02:47:29;99396.28;;;-3.96;47.90
40285;BME280;25997;50.214;19.354;2023-02-10T02:50:38;99376.53;;;-3.97;47.65
40285;BME280;25997;50.214;19.354;2023-02-10T02:53:46;99372.78;;;-4.00;47.45
40285;BME280;25997;50.214;19.354;2023-02-10T02:56:58;99383.75;;;-4.01;47.71
40285;BME280;25997;50.214;19.354;2023-02-10T03:00:06;99392.81;;;-4.05;47.55
40285;BME280;25997;50.214;19.354;2023-02-10T03:03:14;99389.00;;;-4.08;47.55
40285;BME280;25997;50.214;19.354;2023-02-10T03:06:16;99382.44;;;-4.22;48.01
40285;BME280;25997;50.214;19.354;2023-02-10T03:09:19;99392.22;;;-4.26;47.88
40285;BME280;25997;50.214;19.354;2023-02-10T03:12:22;99386.31;;;-4.34;48.21
40285;BME280;25997;50.214;19.354;2023-02-10T03:15:25;99384.00;;;-4.39;48.11
40285;BME280;25997;50.214;19.354;2023-02-10T03:18:29;99385.16;;;-4.44;48.41
40285;BME280;25997;50.214;19.354;2023-02-10T03:21:31;99387.22;;;-4.49;48.62
40285;BME280;25997;50.214;19.354;2023-02-10T03:24:34;99397.44;;;-4.57;48.96
40285;BME280;25997;50.214;19.354;2023-02-10T03:27:36;99395.88;;;-4.64;48.66
40285;BME280;25997;50.214;19.354;2023-02-10T03:30:39;99391.50;;;-4.65;48.90
40285;BME280;25997;50.214;19.354;2023-02-10T03:33:49;99392.19;;;-4.75;49.16
40285;BME280;25997;50.214;19.354;2023-02-10T03:36:51;99380.53;;;-4.80;49.35
40285;BME280;25997;50.214;19.354;2023-02-10T03:39:54;99384.44;;;-4.83;49.86
40285;BME280;25997;50.214;19.354;2023-02-10T03:42:56;99384.19;;;-4.93;50.25
40285;BME280;25997;50.214;19.354;2023-02-10T03:45:59;99382.63;;;-5.00;50.08
40285;BME280;25997;50.214;19.354;2023-02-10T03:49:04;99387.34;;;-4.96;50.27
40285;BME280;25997;50.214;19.354;2023-02-10T03:52:07;99401.53;;;-4.91;50.18
40285;BME280;25997;50.214;19.354;2023-02-10T03:55:09;99392.84;;;-4.84;49.92
40285;BME280;25997;50.214;19.354;2023-02-10T03:58:15;99394.53;;;-4.85;49.90
40285;BME280;25997;50.214;19.354;2023-02-10T04:01:17;99395.91;;;-4.80;49.66
40285;BME280;25997;50.214;19.354;2023-02-10T04:04:21;99392.59;;;-4.79;49.82
40285;BME280;25997;50.214;19.354;2023-02-10T04:07:24;99390.06;;;-4.79;49.96
40285;BME280;25997;50.214;19.354;2023-02-10T04:10:26;99398.94;;;-4.75;49.71
40285;BME280;25997;50.214;19.354;2023-02-10T04:13:29;99401.50;;;-4.75;49.61
40285;BME280;25997;50.214;19.354;2023-02-10T04:16:32;99407.13;;;-4.71;49.64
40285;BME280;25997;50.214;19.354;2023-02-10T04:19:36;99410.44;;;-4.72;49.51
40285;BME280;25997;50.214;19.354;2023-02-10T04:22:38;99413.16;;;-4.70;49.65
40285;BME280;25997;50.214;19.354;2023-02-10T04:25:41;99404.06;;;-4.75;49.67
40285;BME280;25997;50.214;19.354;2023-02-10T04:28:43;99399.78;;;-4.68;49.40
40285;BME280;25997;50.214;19.354;2023-02-10T04:31:46;99403.97;;;-4.68;49.33
40285;BME280;25997;50.214;19.354;2023-02-10T04:34:50;99399.78;;;-4.68;49.83
40285;BME280;25997;50.214;19.354;2023-02-10T04:37:52;99400.44;;;-4.77;50.52
40285;BME280;25997;50.214;19.354;2023-02-10T04:40:55;99399.53;;;-4.78;50.13
40285;BME280;25997;50.214;19.354;2023-02-10T04:43:58;99404.84;;;-4.76;50.13
40285;BME280;25997;50.214;19.354;2023-02-10T04:47:00;99402.84;;;-4.79;50.26
40285;BME280;25997;50.214;19.354;2023-02-10T04:50:05;99408.88;;;-4.78;50.23
40285;BME280;25997;50.214;19.354;2023-02-10T04:53:08;99413.34;;;-4.84;50.28
40285;BME280;25997;50.214;19.354;2023-02-10T04:56:11;99415.16;;;-4.83;50.36
40285;BME280;25997;50.214;19.354;2023-02-10T04:59:14;99416.47;;;-4.87;50.60
40285;BME280;25997;50.214;19.354;2023-02-10T05:02:16;99415.81;;;-4.77;50.04
40285;BME280;25997;50.214;19.354;2023-02-10T05:05:20;99415.81;;;-4.77;50.17
40285;BME280;25997;50.214;19.354;2023-02-10T05:08:25;99428.31;;;-4.80;49.77
40285;BME280;25997;50.214;19.354;2023-02-10T05:11:27;99429.03;;;-4.81;50.14
40285;BME280;25997;50.214;19.354;2023-02-10T05:14:30;99433.59;;;-4.79;50.08
40285;BME280;25997;50.214;19.354;2023-02-10T05:17:32;99435.00;;;-4.74;49.71
40285;BME280;25997;50.214;19.354;2023-02-10T05:20:36;99429.25;;;-4.71;49.69
40285;BME280;25997;50.214;19.354;2023-02-10T05:23:39;99430.03;;;-4.72;49.89
40285;BME280;25997;50.214;19.354;2023-02-10T05:26:42;99430.44;;;-4.76;49.81
40285;BME280;25997;50.214;19.354;2023-02-10T05:29:44;99431.38;;;-4.76;50.19
40285;BME280;25997;50.214;19.354;2023-02-10T05:32:47;99440.50;;;-4.78;50.25
40285;BME280;25997;50.214;19.354;2023-02-10T05:35:50;99440.19;;;-4.81;50.31
40285;BME280;25997;50.214;19.354;2023-02-10T05:38:53;99442.34;;;-4.77;50.07
40285;BME280;25997;50.214;19.354;2023-02-10T05:42:13;99442.75;;;-4.81;50.47
40285;BME280;25997;50.214;19.354;2023-02-10T05:45:15;99446.06;;;-4.97;50.80
40285;BME280;25997;50.214;19.354;2023-02-10T05:48:18;99455.78;;;-4.86;50.46
40285;BME280;25997;50.214;19.354;2023-02-10T05:51:22;99463.47;;;-4.86;50.44
40285;BME280;25997;50.214;19.354;2023-02-10T05:54:24;99469.03;;;-4.75;50.22
40285;BME280;25997;50.214;19.354;2023-02-10T05:57:27;99464.75;;;-4.83;50.34
40285;BME280;25997;50.214;19.354;2023-02-10T06:00:29;99464.25;;;-4.87;50.64
40285;BME280;25997;50.214;19.354;2023-02-10T06:03:32;99455.38;;;-4.82;50.15
40285;BME280;25997;50.214;19.354;2023-02-10T06:06:36;99477.28;;;-4.93;50.65
40285;BME280;25997;50.214;19.354;2023-02-10T06:09:38;99475.63;;;-4.92;50.29
40285;BME280;25997;50.214;19.354;2023-02-10T06:12:41;99459.69;;;-4.90;50.58
40285;BME280;25997;50.214;19.354;2023-02-10T06:15:43;99458.28;;;-4.95;50.63
40285;BME280;25997;50.214;19.354;2023-02-10T06:18:46;99468.38;;;-4.96;50.70
40285;BME280;25997;50.214;19.354;2023-02-10T06:21:50;99454.91;;;-5.02;51.09
40285;BME280;25997;50.214;19.354;2023-02-10T06:24:52;99462.00;;;-4.84;50.34
40285;BME280;25997;50.214;19.354;2023-02-10T06:27:55;99468.44;;;-4.88;50.45
40285;BME280;25997;50.214;19.354;2023-02-10T06:30:57;99481.91;;;-4.82;50.41
40285;BME280;25997;50.214;19.354;2023-02-10T06:34:00;99486.72;;;-4.69;49.84
40285;BME280;25997;50.214;19.354;2023-02-10T06:37:04;99483.47;;;-4.75;50.07
40285;BME280;25997;50.214;19.354;2023-02-10T06:40:07;99491.06;;;-4.68;50.23
40285;BME280;25997;50.214;19.354;2023-02-10T06:43:10;99485.81;;;-4.70;49.98
40285;BME280;25997;50.214;19.354;2023-02-10T06:46:13;99491.00;;;-4.77;50.59
40285;BME280;25997;50.214;19.354;2023-02-10T06:49:16;99490.44;;;-4.74;50.34
40285;BME280;25997;50.214;19.354;2023-02-10T06:52:20;99495.47;;;-4.67;50.60
40285;BME280;25997;50.214;19.354;2023-02-10T06:55:25;99494.28;;;-4.78;50.56
40285;BME280;25997;50.214;19.354;2023-02-10T06:58:27;99501.88;;;-4.55;50.21
40285;BME280;25997;50.214;19.354;2023-02-10T07:01:30;99496.34;;;-4.51;49.87
40285;BME280;25997;50.214;19.354;2023-02-10T07:04:32;99490.34;;;-4.51;50.02
40285;BME280;25997;50.214;19.354;2023-02-10T07:07:37;99505.09;;;-4.33;49.92
40285;BME280;25997;50.214;19.354;2023-02-10T07:10:39;99513.88;;;-4.31;49.68
40285;BME280;25997;50.214;19.354;2023-02-10T07:13:42;99507.97;;;-4.30;49.65
40285;BME280;25997;50.214;19.354;2023-02-10T07:16:45;99520.78;;;-4.15;49.39
40285;BME280;25997;50.214;19.354;2023-02-10T07:19:48;99485.31;;;-4.19;49.35
40285;BME280;25997;50.214;19.354;2023-02-10T07:22:52;99482.16;;;-4.16;49.42
40285;BME280;25997;50.214;19.354;2023-02-10T07:25:54;99485.50;;;-4.09;49.27
40285;BME280;25997;50.214;19.354;2023-02-10T07:28:57;99479.84;;;-3.98;49.21
40285;BME280;25997;50.214;19.354;2023-02-10T07:31:59;99504.13;;;-3.78;48.42
40285;BME280;25997;50.214;19.354;2023-02-10T07:35:02;99498.75;;;-3.64;48.15
40285;BME280;25997;50.214;19.354;2023-02-10T07:38:06;99492.81;;;-3.80;48.50
40285;BME280;25997;50.214;19.354;2023-02-10T07:41:09;99494.97;;;-3.68;48.58
40285;BME280;25997;50.214;19.354;2023-02-10T07:44:11;99488.81;;;-3.61;48.04
40285;BME280;25997;50.214;19.354;2023-02-10T07:47:14;99497.63;;;-3.51;48.05
40285;BME280;25997;50.214;19.354;2023-02-10T07:50:16;99486.41;;;-3.36;47.88
40285;BME280;25997;50.214;19.354;2023-02-10T07:53:21;99498.59;;;-3.33;47.43
40285;BME280;25997;50.214;19.354;2023-02-10T07:56:23;99498.38;;;-3.10;47.44
40285;BME280;25997;50.214;19.354;2023-02-10T07:59:26;99515.72;;;-3.25;47.12
40285;BME280;25997;50.214;19.354;2023-02-10T08:02:28;99524.19;;;-3.18;47.19
40285;BME280;25997;50.214;19.354;2023-02-10T08:05:31;99515.63;;;-3.09;47.03
40285;BME280;25997;50.214;19.354;2023-02-10T08:08:35;99521.59;;;-2.85;47.00
40285;BME280;25997;50.214;19.354;2023-02-10T08:11:38;99503.03;;;-2.82;46.68
40285;BME280;25997;50.214;19.354;2023-02-10T08:14:40;99522.94;;;-2.88;46.81
40285;BME280;25997;50.214;19.354;2023-02-10T08:17:43;99517.53;;;-2.66;46.62
40285;BME280;25997;50.214;19.354;2023-02-10T08:20:46;99513.16;;;-2.67;46.06
40285;BME280;25997;50.214;19.354;2023-02-10T08:23:50;99527.38;;;-2.70;46.01
40285;BME280;25997;50.214;19.354;2023-02-10T08:26:57;99527.97;;;-2.73;46.38
40285;BME280;25997;50.214;19.354;2023-02-10T08:29:59;99530.41;;;-2.40;45.90
40285;BME280;25997;50.214;19.354;2023-02-10T08:33:02;99538.00;;;-2.24;45.56
40285;BME280;25997;50.214;19.354;2023-02-10T08:36:06;99538.63;;;-2.10;45.36
40285;BME280;25997;50.214;19.354;2023-02-10T08:39:10;99557.38;;;-2.19;45.15
40285;BME280;25997;50.214;19.354;2023-02-10T08:42:13;99539.38;;;-2.19;45.80
40285;BME280;25997;50.214;19.354;2023-02-10T08:45:16;99527.59;;;-2.00;45.10
40285;BME280;25997;50.214;19.354;2023-02-10T08:48:18;99528.16;;;-1.86;45.37
40285;BME280;25997;50.214;19.354;2023-02-10T08:51:21;99526.16;;;-1.80;45.29
40285;BME280;25997;50.214;19.354;2023-02-10T08:54:25;99535.72;;;-1.79;44.80
40285;BME280;25997;50.214;19.354;2023-02-10T08:57:27;99532.94;;;-1.54;44.25
40285;BME280;25997;50.214;19.354;2023-02-10T09:00:30;99553.53;;;-1.54;44.35
40285;BME280;25997;50.214;19.354;2023-02-10T09:03:32;99538.13;;;-1.72;44.64
40285;BME280;25997;50.214;19.354;2023-02-10T09:06:38;99532.97;;;-1.63;44.56
40285;BME280;25997;50.214;19.354;2023-02-10T09:09:43;99549.47;;;-1.61;44.68
40285;BME280;25997;50.214;19.354;2023-02-10T09:12:46;99547.44;;;-1.46;44.22
40285;BME280;25997;50.214;19.354;2023-02-10T09:15:49;99539.06;;;-1.27;44.04
40285;BME280;25997;50.214;19.354;2023-02-10T09:18:51;99547.31;;;-1.04;43.67
40285;BME280;25997;50.214;19.354;2023-02-10T09:21:54;99524.38;;;-1.28;43.81
40285;BME280;25997;50.214;19.354;2023-02-10T09:24:59;99548.09;;;-0.77;43.79
40285;BME280;25997;50.214;19.354;2023-02-10T09:28:01;99542.56;;;-0.90;43.67
40285;BME280;25997;50.214;19.354;2023-02-10T09:31:04;99543.94;;;-0.94;43.22
40285;BME280;25997;50.214;19.354;2023-02-10T09:34:07;99548.06;;;-0.96;43.22
40285;BME280;25997;50.214;19.354;2023-02-10T09:37:10;99549.06;;;-0.85;43.57
40285;BME280;25997;50.214;19.354;2023-02-10T09:40:19;99547.47;;;-0.75;42.95
40285;BME280;25997;50.214;19.354;2023-02-10T09:43:44;99546.78;;;-0.82;43.30
40285;BME280;25997;50.214;19.354;2023-02-10T09:47:15;99532.16;;;-0.73;43.34
40285;BME280;25997;50.214;19.354;2023-02-10T09:50:34;99527.56;;;-0.40;42.57
40285;BME280;25997;50.214;19.354;2023-02-10T09:53:39;99541.28;;;-0.50;42.65
40285;BME280;25997;50.214;19.354;2023-02-10T09:56:43;99528.81;;;-0.45;42.52
40285;BME280;25997;50.214;19.354;2023-02-10T09:59:48;99527.34;;;-0.52;42.54
40285;BME280;25997;50.214;19.354;2023-02-10T10:02:53;99521.63;;;-0.21;42.51
40285;BME280;25997;50.214;19.354;2023-02-10T10:06:06;99523.06;;;0.23;42.37
40285;BME280;25997;50.214;19.354;2023-02-10T10:09:21;99518.00;;;0.43;41.33
40285;BME280;25997;50.214;19.354;2023-02-10T10:12:27;99521.19;;;0.88;41.85
40285;BME280;25997;50.214;19.354;2023-02-10T10:15:34;99526.28;;;1.27;40.68
40285;BME280;25997;50.214;19.354;2023-02-10T10:18:47;99518.53;;;1.17;40.71
40285;BME280;25997;50.214;19.354;2023-02-10T10:21:54;99515.81;;;1.25;41.04
40285;BME280;25997;50.214;19.354;2023-02-10T10:25:17;99514.63;;;1.12;39.84
40285;BME280;25997;50.214;19.354;2023-02-10T10:28:39;99514.28;;;1.48;39.99
40285;BME280;25997;50.214;19.354;2023-02-10T10:31:46;99513.75;;;1.62;40.43
40285;BME280;25997;50.214;19.354;2023-02-10T10:34:50;99512.44;;;1.97;40.40
40285;BME280;25997;50.214;19.354;2023-02-10T10:37:53;99498.84;;;2.31;39.79
40285;BME280;25997;50.214;19.354;2023-02-10T10:40:59;99507.78;;;1.93;39.85
40285;BME280;25997;50.214;19.354;2023-02-10T10:44:05;99510.41;;;1.73;40.02
40285;BME280;25997;50.214;19.354;2023-02-10T10:47:13;99503.38;;;1.32;39.68
40285;BME280;25997;50.214;19.354;2023-02-10T10:50:19;99495.00;;;1.54;40.45
40285;BME280;25997;50.214;19.354;2023-02-10T10:53:35;99499.78;;;1.50;39.96
40285;BME280;25997;50.214;19.354;2023-02-10T10:56:43;99490.06;;;1.47;40.08
40285;BME280;25997;50.214;19.354;2023-02-10T10:59:53;99490.31;;;1.60;40.52
40285;BME280;25997;50.214;19.354;2023-02-10T11:02:59;99502.22;;;1.58;40.28
40285;BME280;25997;50.214;19.354;2023-02-10T11:06:04;99504.03;;;1.49;39.78
40285;BME280;25997;50.214;19.354;2023-02-10T11:09:19;99503.13;;;1.39;39.72
40285;BME280;25997;50.214;19.354;2023-02-10T11:12:27;99498.47;;;1.45;40.12
40285;BME280;25997;50.214;19.354;2023-02-10T11:15:35;99511.19;;;1.62;40.34
40285;BME280;25997;50.214;19.354;2023-02-10T11:18:39;99513.25;;;1.66;39.96
40285;BME280;25997;50.214;19.354;2023-02-10T11:21:41;99507.66;;;1.81;40.24
40285;BME280;25997;50.214;19.354;2023-02-10T11:24:49;99504.28;;;1.92;39.66
40285;BME280;25997;50.214;19.354;2023-02-10T11:27:53;99495.75;;;1.83;40.03
40285;BME280;25997;50.214;19.354;2023-02-10T11:30:59;99490.03;;;1.87;39.92
40285;BME280;25997;50.214;19.354;2023-02-10T11:34:05;99475.69;;;1.81;40.02
40285;BME280;25997;50.214;19.354;2023-02-10T11:37:21;99484.59;;;1.84;40.00
40285;BME280;25997;50.214;19.354;2023-02-10T11:40:26;99483.59;;;1.72;40.25
40285;BME280;25997;50.214;19.354;2023-02-10T11:43:31;99498.59;;;1.56;40.16
40285;BME280;25997;50.214;19.354;2023-02-10T11:46:36;99493.28;;;1.65;40.47
40285;BME280;25997;50.214;19.354;2023-02-10T11:49:42;99504.69;;;1.67;40.64
40285;BME280;25997;50.214;19.354;2023-02-10T11:52:45;99487.84;;;1.82;40.64
40285;BME280;25997;50.214;19.354;2023-02-10T11:55:54;99481.13;;;1.84;39.90
40285;BME280;25997;50.214;19.354;2023-02-10T11:59:04;99490.84;;;1.86;40.13
40285;BME280;25997;50.214;19.354;2023-02-10T12:02:15;99494.31;;;1.67;40.14
40285;BME280;25997;50.214;19.354;2023-02-10T12:05:27;99490.34;;;1.50;39.89
40285;BME280;25997;50.214;19.354;2023-02-10T12:08:37;99494.09;;;1.23;40.28
40285;BME280;25997;50.214;19.354;2023-02-10T12:11:49;99503.78;;;1.36;40.16
40285;BME280;25997;50.214;19.354;2023-02-10T12:15:03;99496.00;;;1.36;40.27
40285;BME280;25997;50.214;19.354;2023-02-10T12:18:22;99500.94;;;1.43;40.42
40285;BME280;25997;50.214;19.354;2023-02-10T12:21:54;99485.31;;;1.42;40.24
40285;BME280;25997;50.214;19.354;2023-02-10T12:25:09;99480.63;;;1.48;40.60
40285;BME280;25997;50.214;19.354;2023-02-10T12:28:25;99485.03;;;1.59;40.43
40285;BME280;25997;50.214;19.354;2023-02-10T12:31:38;99478.78;;;1.67;40.70
40285;BME280;25997;50.214;19.354;2023-02-10T12:35:18;99472.72;;;1.36;40.45
40285;BME280;25997;50.214;19.354;2023-02-10T12:38:40;99485.56;;;1.35;40.42
40285;BME280;25997;50.214;19.354;2023-02-10T12:41:56;99491.88;;;1.28;40.84
40285;BME280;25997;50.214;19.354;2023-02-10T12:45:07;99493.69;;;1.39;41.09
40285;BME280;25997;50.214;19.354;2023-02-10T12:48:21;99499.50;;;1.47;40.87
40285;BME280;25997;50.214;19.354;2023-02-10T12:51:41;99503.78;;;1.56;40.78
40285;BME280;25997;50.214;19.354;2023-02-10T12:54:51;99508.34;;;1.69;40.85
40285;BME280;25997;50.214;19.354;2023-02-10T12:57:59;99500.91;;;1.73;41.00
40285;BME280;25997;50.214;19.354;2023-02-10T13:01:11;99508.44;;;1.50;40.77
40285;BME280;25997;50.214;19.354;2023-02-10T13:04:19;99497.06;;;1.58;40.98
40285;BME280;25997;50.214;19.354;2023-02-10T13:07:32;99496.03;;;1.56;41.44
40285;BME280;25997;50.214;19.354;2023-02-10T13:10:39;99479.34;;;1.33;41.47
40285;BME280;25997;50.214;19.354;2023-02-10T13:13:46;99484.38;;;1.51;41.33
40285;BME280;25997;50.214;19.354;2023-02-10T13:16:53;99481.25;;;1.65;41.43
40285;BME280;25997;50.214;19.354;2023-02-10T13:20:02;99493.03;;;1.72;41.43
40285;BME280;25997;50.214;19.354;2023-02-10T13:23:19;99493.06;;;1.62;41.35
40285;BME280;25997;50.214;19.354;2023-02-10T13:26:43;99491.63;;;1.65;41.49
40285;BME280;25997;50.214;19.354;2023-02-10T13:29:59;99489.41;;;1.70;41.82
40285;BME280;25997;50.214;19.354;2023-02-10T13:33:11;99490.84;;;1.86;41.26
40285;BME280;25997;50.214;19.354;2023-02-10T13:36:17;99501.41;;;1.89;41.35
40285;BME280;25997;50.214;19.354;2023-02-10T13:39:29;99501.69;;;1.92;41.73
40285;BME280;25997;50.214;19.354;2023-02-10T13:42:35;99497.69;;;1.86;41.45
40285;BME280;25997;50.214;19.354;2023-02-10T13:45:38;99503.25;;;1.80;41.78
40285;BME280;25997;50.214;19.354;2023-02-10T13:48:42;99496.66;;;1.74;41.77
40285;BME280;25997;50.214;19.354;2023-02-10T13:51:46;99506.78;;;1.71;41.75
40285;BME280;25997;50.214;19.354;2023-02-10T13:54:58;99508.31;;;1.59;41.85
40285;BME280;25997;50.214;19.354;2023-02-10T14:01:38;99524.88;;;1.41;42.26
40285;BME280;25997;50.214;19.354;2023-02-10T14:04:43;99537.53;;;1.58;42.09
40285;BME280;25997;50.214;19.354;2023-02-10T14:07:48;99534.84;;;1.56;42.27
40285;BME280;25997;50.214;19.354;2023-02-10T14:10:58;99544.94;;;1.33;42.43
40285;BME280;25997;50.214;19.354;2023-02-10T14:14:03;99524.13;;;1.42;42.22
40285;BME280;25997;50.214;19.354;2023-02-10T14:17:20;99534.34;;;1.50;42.25
40285;BME280;25997;50.214;19.354;2023-02-10T14:20:30;99535.88;;;1.58;42.34
40285;BME280;25997;50.214;19.354;2023-02-10T14:23:35;99535.38;;;1.42;42.54
40285;BME280;25997;50.214;19.354;2023-02-10T14:26:42;99540.91;;;1.47;42.53
40285;BME280;25997;50.214;19.354;2023-02-10T14:29:47;99536.41;;;1.54;42.57
40285;BME280;25997;50.214;19.354;2023-02-10T14:32:51;99541.69;;;1.46;42.49
40285;BME280;25997;50.214;19.354;2023-02-10T14:35:56;99550.25;;;1.55;42.68
40285;BME280;25997;50.214;19.354;2023-02-10T14:39:00;99544.81;;;1.62;42.75
40285;BME280;25997;50.214;19.354;2023-02-10T14:42:05;99544.94;;;1.63;42.67
40285;BME280;25997;50.214;19.354;2023-02-10T14:45:19;99541.72;;;1.66;42.91
40285;BME280;25997;50.214;19.354;2023-02-10T14:48:22;99545.84;;;1.44;43.35
40285;BME280;25997;50.214;19.354;2023-02-10T14:51:27;99539.22;;;1.47;43.42
40285;BME280;25997;50.214;19.354;2023-02-10T14:54:37;99544.69;;;1.50;43.42
40285;BME280;25997;50.214;19.354;2023-02-10T14:57:43;99542.09;;;1.50;43.54
40285;BME280;25997;50.214;19.354;2023-02-10T15:00:54;99548.03;;;1.49;43.69
40285;BME280;25997;50.214;19.354;2023-02-10T15:03:57;99546.22;;;1.28;43.82
40285;BME280;25997;50.214;19.354;2023-02-10T15:06:59;99540.59;;;1.13;44.06
40285;BME280;25997;50.214;19.354;2023-02-10T15:10:07;99543.66;;;0.89;44.63
40285;BME280;25997;50.214;19.354;2023-02-10T15:13:19;99540.66;;;0.75;44.72
40285;BME280;25997;50.214;19.354;2023-02-10T15:16:23;99542.72;;;0.79;44.56
40285;BME280;25997;50.214;19.354;2023-02-10T15:19:26;99546.47;;;0.82;44.60
40285;BME280;25997;50.214;19.354;2023-02-10T15:22:33;99546.09;;;0.78;44.56
40285;BME280;25997;50.214;19.354;2023-02-10T15:25:36;99545.53;;;0.72;44.62
40285;BME280;25997;50.214;19.354;2023-02-10T15:28:40;99543.84;;;0.62;44.78
40285;BME280;25997;50.214;19.354;2023-02-10T15:31:50;99546.53;;;0.64;44.55
40285;BME280;25997;50.214;19.354;2023-02-10T15:34:53;99548.13;;;0.72;44.30
40285;BME280;25997;50.214;19.354;2023-02-10T15:37:58;99552.75;;;0.66;44.53
40285;BME280;25997;50.214;19.354;2023-02-10T15:41:04;99554.81;;;0.60;44.70
40285;BME280;25997;50.214;19.354;2023-02-10T15:44:28;99555.97;;;0.63;44.82
40285;BME280;25997;50.214;19.354;2023-02-10T15:47:42;99556.09;;;0.65;44.85
40285;BME280;25997;50.214;19.354;2023-02-10T15:50:45;99558.44;;;0.62;44.68
40285;BME280;25997;50.214;19.354;2023-02-10T15:53:47;99564.63;;;0.64;44.74
40285;BME280;25997;50.214;19.354;2023-02-10T15:56:57;99568.47;;;0.59;44.99
40285;BME280;25997;50.214;19.354;2023-02-10T16:00:02;99581.13;;;0.56;45.30
40285;BME280;25997;50.214;19.354;2023-02-10T16:03:10;99573.63;;;0.48;45.63
40285;BME280;25997;50.214;19.354;2023-02-10T16:06:14;99581.19;;;0.47;45.83
40285;BME280;25997;50.214;19.354;2023-02-10T16:09:17;99578.16;;;0.42;45.89
40285;BME280;25997;50.214;19.354;2023-02-10T16:12:19;99568.75;;;0.43;46.12
40285;BME280;25997;50.214;19.354;2023-02-10T16:15:25;99566.75;;;0.30;46.25
40285;BME280;25997;50.214;19.354;2023-02-10T16:18:28;99561.38;;;0.19;46.90
40285;BME280;25997;50.214;19.354;2023-02-10T16:21:31;99561.88;;;0.15;46.91